This is the latest recevied weather packets stored in our database for station/object G4MDP-13. If no packets are shown the sender has not sent any weather packets the latest 10 day(s).
| Time | Temp. | Humidity | Pressure | Rain* | Wind** | Luminosity | Snow |
|---|---|---|---|---|---|---|---|
| 1778141117 | 14.44° C | 60% | 1010.3 hPa | 0 mm | - | - | - |
| 1778141057 | 14.44° C | 60% | 1010.4 hPa | 0 mm | - | - | - |
| 1778140157 | 13.89° C | 63% | 1010.2 hPa | 0 mm | - | - | - |
| 1778139317 | 12.78° C | 67% | 1010.4 hPa | 0 mm | - | - | - |
| 1778139257 | 13.33° C | 68% | 1010.3 hPa | 0 mm | - | - | - |
| 1778138357 | 12.22° C | 72% | 1010.1 hPa | 0 mm | - | - | - |
| 1778137517 | 11.11° C | 77% | 1016 hPa | 0 mm | - | - | - |
| 1778137457 | 11.11° C | 78% | 1010.1 hPa | 0 mm | - | - | - |
| 1778136557 | 10.56° C | 80% | 1015.8 hPa | 0 mm | - | - | - |
| 1778135717 | 10° C | 82% | 1015.7 hPa | 0 mm | - | - | - |
| 1778135657 | 10° C | 82% | 1015.7 hPa | 0 mm | - | - | - |
| 1778134757 | 8.89° C | 87% | 1009.9 hPa | 0 mm | - | - | - |
| 1778133917 | 8.33° C | 88% | 1009.7 hPa | 0 mm | - | - | - |
| 1778133857 | 8.33° C | 88% | 1009.7 hPa | 0 mm | - | - | - |
| 1778132957 | 7.78° C | 89% | 1015.6 hPa | 0 mm | - | - | - |
| 1778132117 | 7.78° C | 89% | 1015.5 hPa | 0 mm | - | - | - |
| 1778132057 | 7.78° C | 89% | 1015.5 hPa | 0 mm | - | - | - |
| 1778131158 | 7.78° C | 88% | 1015.5 hPa | 0 mm | - | - | - |
| 1778130317 | 7.78° C | 88% | 1009.4 hPa | 0 mm | - | - | - |
| 1778130257 | 7.78° C | 88% | 1009.4 hPa | 0 mm | - | - | - |
| 1778129357 | 7.22° C | 88% | 1009.6 hPa | 0 mm | - | - | - |
| 1778128517 | 7.22° C | 87% | 1015.1 hPa | 0 mm | - | - | - |
| 1778128457 | 7.22° C | 87% | 1015.2 hPa | 0 mm | - | - | - |
| 1778127557 | 7.78° C | 87% | 1015.3 hPa | 0 mm | - | - | - |
| 1778126717 | 7.78° C | 87% | 1009.1 hPa | 0 mm | - | - | - |
* Rain latest hour (hover to see other rain measurements)
** Current wind speed in m/s (hover to see current wind gust speed)